createdAt,value
2016-08-14T00:00:09.637Z,0
2016-08-14T00:01:09.781Z,0
2016-08-14T00:02:09.731Z,0
2016-08-14T00:03:09.082Z,0
2016-08-14T00:04:09.788Z,0
2016-08-14T00:05:09.270Z,0
2016-08-14T00:06:09.174Z,0
2016-08-14T00:07:09.600Z,0
2016-08-14T00:08:09.087Z,0
2016-08-14T00:09:09.710Z,0
2016-08-14T00:10:09.478Z,0
2016-08-14T00:11:08.236Z,0
2016-08-14T00:12:09.133Z,0
2016-08-14T00:13:09.941Z,0
2016-08-14T00:14:08.592Z,0
2016-08-14T00:15:09.496Z,0
2016-08-14T00:16:09.203Z,0
2016-08-14T00:17:08.876Z,0
2016-08-14T00:18:08.438Z,0
2016-08-14T00:19:08.593Z,0
2016-08-14T00:20:09.022Z,0
2016-08-14T00:21:07.598Z,0
2016-08-14T00:22:09.416Z,0
2016-08-14T00:23:08.900Z,0
2016-08-14T00:24:08.360Z,0
2016-08-14T00:25:08.863Z,0
2016-08-14T00:26:08.486Z,0
2016-08-14T00:27:09.138Z,0
2016-08-14T00:28:08.891Z,0
2016-08-14T00:29:08.644Z,0
2016-08-14T00:30:08.766Z,0
2016-08-14T00:31:08.576Z,0
2016-08-14T00:32:08.033Z,0
2016-08-14T00:33:08.464Z,0
2016-08-14T00:34:08.428Z,0
2016-08-14T00:35:07.730Z,0
2016-08-14T00:36:07.828Z,0
2016-08-14T00:37:08.881Z,0
2016-08-14T00:38:08.646Z,0
2016-08-14T00:39:08.084Z,0
2016-08-14T00:40:07.638Z,0
2016-08-14T00:41:08.118Z,0
2016-08-14T00:42:08.462Z,0
2016-08-14T00:43:08.000Z,0
2016-08-14T00:44:07.973Z,0
2016-08-14T00:45:08.324Z,0
2016-08-14T00:46:08.064Z,0
2016-08-14T00:47:07.864Z,0
2016-08-14T00:48:08.401Z,0
2016-08-14T00:49:07.731Z,0
2016-08-14T00:50:07.744Z,0
2016-08-14T00:51:07.170Z,0
2016-08-14T00:52:06.204Z,0
2016-08-14T00:53:08.465Z,0
2016-08-14T00:54:06.818Z,0
2016-08-14T00:55:07.693Z,0
2016-08-14T00:56:07.130Z,0
2016-08-14T00:57:06.692Z,0
2016-08-14T00:58:06.663Z,0
2016-08-14T00:59:07.314Z,0
2016-08-14T01:00:05.863Z,0
2016-08-14T01:01:07.265Z,0
2016-08-14T01:02:07.351Z,0
2016-08-14T01:03:07.336Z,0
2016-08-14T01:04:06.373Z,0
2016-08-14T01:05:07.050Z,0
2016-08-14T01:06:06.980Z,0
2016-08-14T01:07:06.247Z,0
2016-08-14T01:08:05.484Z,0
2016-08-14T01:09:06.358Z,0
2016-08-14T01:10:06.799Z,0
2016-08-14T01:11:06.753Z,0
2016-08-14T01:12:06.011Z,0
2016-08-14T01:13:06.886Z,0
2016-08-14T01:14:05.438Z,0
2016-08-14T01:15:06.072Z,0
2016-08-14T01:16:06.751Z,0
2016-08-14T01:17:06.485Z,0
2016-08-14T01:18:06.443Z,0
2016-08-14T01:19:05.699Z,0
2016-08-14T01:20:06.961Z,0
2016-08-14T01:21:06.310Z,0
2016-08-14T01:22:05.573Z,0
2016-08-14T01:23:05.210Z,0
2016-08-14T01:24:05.709Z,0
2016-08-14T01:25:06.115Z,0
2016-08-14T01:26:06.330Z,0
2016-08-14T01:27:05.548Z,0
2016-08-14T01:28:05.959Z,0
2016-08-14T01:29:06.339Z,0
2016-08-14T01:30:05.883Z,0
2016-08-14T01:31:05.859Z,0
2016-08-14T01:32:05.321Z,0
2016-08-14T01:33:06.179Z,0
2016-08-14T01:34:05.729Z,0
2016-08-14T01:35:06.320Z,0
2016-08-14T01:36:05.146Z,0
2016-08-14T01:37:05.585Z,0
2016-08-14T01:38:05.747Z,0
2016-08-14T01:39:05.691Z,0
2016-08-14T01:40:05.652Z,0
2016-08-14T01:41:05.391Z,0
2016-08-14T01:42:05.359Z,0
2016-08-14T01:43:05.707Z,0
2016-08-14T01:44:03.271Z,0
2016-08-14T01:45:05.242Z,0
2016-08-14T01:46:05.198Z,0
2016-08-14T01:47:04.832Z,0
2016-08-14T01:48:05.301Z,0
2016-08-14T01:49:05.280Z,0
2016-08-14T01:50:05.070Z,0
2016-08-14T01:51:04.968Z,0
2016-08-14T01:52:04.920Z,0
2016-08-14T01:53:04.850Z,0
2016-08-14T01:54:04.809Z,0
2016-08-14T01:55:04.770Z,0
2016-08-14T01:56:04.053Z,0
2016-08-14T01:57:04.381Z,0
2016-08-14T01:58:03.933Z,0
2016-08-14T01:59:04.091Z,0
2016-08-14T02:00:04.562Z,0
2016-08-14T02:01:04.511Z,0
2016-08-14T02:02:06.271Z,0
2016-08-14T02:03:04.614Z,0
2016-08-14T02:04:04.356Z,0
2016-08-14T02:05:04.328Z,0
2016-08-14T02:06:04.261Z,0
2016-08-14T02:07:04.435Z,0
2016-08-14T02:08:04.372Z,0
2016-08-14T02:09:04.141Z,0
2016-08-14T02:10:03.390Z,0
2016-08-14T02:11:04.043Z,0
2016-08-14T02:12:03.301Z,0
2016-08-14T02:13:04.351Z,0
2016-08-14T02:14:02.513Z,0
2016-08-14T02:15:03.162Z,0
2016-08-14T02:16:03.540Z,0
2016-08-14T02:17:04.002Z,0
2016-08-14T02:18:03.943Z,0
2016-08-14T02:19:03.762Z,0
2016-08-14T02:20:02.935Z,0
2016-08-14T02:21:03.849Z,0
2016-08-14T02:22:03.234Z,0
2016-08-14T02:23:02.621Z,0
2016-08-14T02:24:03.682Z,0
2016-08-14T02:25:03.664Z,0
2016-08-14T02:26:03.382Z,0
2016-08-14T02:27:03.352Z,0
2016-08-14T02:28:01.894Z,0
2016-08-14T02:29:02.553Z,0
2016-08-14T02:30:03.431Z,0
2016-08-14T02:31:02.740Z,0
2016-08-14T02:32:02.455Z,0
2016-08-14T02:33:03.252Z,0
2016-08-14T02:34:03.032Z,0
2016-08-14T02:35:02.966Z,0
2016-08-14T02:36:02.934Z,0
2016-08-14T02:37:02.891Z,0
2016-08-14T02:38:02.880Z,0
2016-08-14T02:39:03.394Z,0
2016-08-14T02:40:02.803Z,0
2016-08-14T02:41:02.891Z,0
2016-08-14T02:42:02.651Z,0
2016-08-14T02:43:01.890Z,0
2016-08-14T02:44:02.742Z,0
2016-08-14T02:45:02.708Z,0
2016-08-14T02:46:02.660Z,0
2016-08-14T02:47:02.394Z,0
2016-08-14T02:48:02.574Z,0
2016-08-14T02:49:02.334Z,0
2016-08-14T02:50:02.284Z,0
2016-08-14T02:51:02.252Z,0
2016-08-14T02:52:01.482Z,0
2016-08-14T02:53:01.646Z,0
2016-08-14T02:54:00.694Z,0
2016-08-14T02:55:01.563Z,0
2016-08-14T02:56:02.430Z,0
2016-08-14T02:57:01.963Z,0
2016-08-14T02:58:01.902Z,0
2016-08-14T02:59:01.858Z,0
2016-08-14T03:00:02.233Z,0
2016-08-14T03:01:03.201Z,0
2016-08-14T03:02:01.950Z,0
2016-08-14T03:03:01.128Z,0
2016-08-14T03:04:01.667Z,0
2016-08-14T03:05:00.862Z,0
2016-08-14T03:06:01.615Z,0
2016-08-14T03:07:01.508Z,0
2016-08-14T03:08:01.872Z,0
2016-08-14T03:09:01.422Z,0
2016-08-14T03:10:01.583Z,0
2016-08-14T03:11:01.517Z,0
2016-08-14T03:12:01.474Z,0
2016-08-14T03:13:00.527Z,0
2016-08-14T03:14:00.483Z,0
2016-08-14T03:15:01.152Z,0
2016-08-14T03:16:01.103Z,0
2016-08-14T03:17:01.043Z,0
2016-08-14T03:18:01.414Z,0
2016-08-14T03:19:00.254Z,0
2016-08-14T03:20:01.212Z,0
2016-08-14T03:21:01.478Z,0
2016-08-14T03:22:00.828Z,0
2016-08-14T03:23:01.003Z,0
2016-08-14T03:24:01.407Z,0
2016-08-14T03:25:00.023Z,0
2016-08-14T03:26:00.841Z,0
2016-08-14T03:27:00.600Z,0
2016-08-14T03:28:00.554Z,0
2016-08-14T03:29:00.715Z,0
2016-08-14T03:30:00.463Z,0
2016-08-14T03:31:00.413Z,0
2016-08-14T03:32:00.564Z,0
2016-08-14T03:33:00.333Z,0
2016-08-14T03:34:00.262Z,0
2016-08-14T03:35:00.266Z,0
2016-08-14T03:36:00.222Z,0
2016-08-14T03:37:00.533Z,0
2016-08-14T03:37:59.399Z,0
2016-08-14T03:39:00.547Z,0
2016-08-14T03:40:00.641Z,0
2016-08-14T03:40:59.960Z,0
2016-08-14T03:41:59.891Z,0
2016-08-14T03:42:59.876Z,0
2016-08-14T03:43:59.821Z,0
2016-08-14T03:44:59.784Z,0
2016-08-14T03:45:59.242Z,0
2016-08-14T03:46:59.681Z,0
2016-08-14T03:47:59.671Z,0
2016-08-14T03:48:59.601Z,0
2016-08-14T03:49:59.962Z,0
2016-08-14T03:50:59.691Z,0
2016-08-14T03:51:59.448Z,0
2016-08-14T03:52:59.411Z,0
2016-08-14T03:53:57.960Z,0
2016-08-14T03:54:59.331Z,0
2016-08-14T03:55:59.902Z,0
2016-08-14T03:56:59.423Z,0
2016-08-14T03:57:58.555Z,0
2016-08-14T03:58:59.340Z,0
2016-08-14T03:59:59.090Z,0
2016-08-14T04:00:59.047Z,0
2016-08-14T04:01:59.010Z,0
2016-08-14T04:02:59.157Z,0
2016-08-14T04:03:59.530Z,0
2016-08-14T04:04:58.961Z,0
2016-08-14T04:05:58.837Z,0
2016-08-14T04:06:58.975Z,0
2016-08-14T04:07:58.734Z,0
2016-08-14T04:08:58.684Z,0
2016-08-14T04:09:59.043Z,0
2016-08-14T04:10:58.839Z,0
2016-08-14T04:11:58.752Z,0
2016-08-14T04:12:58.899Z,0
2016-08-14T04:13:58.668Z,0
2016-08-14T04:14:57.921Z,0
2016-08-14T04:15:58.375Z,0
2016-08-14T04:16:57.819Z,0
2016-08-14T04:17:58.458Z,0
2016-08-14T04:18:57.746Z,0
2016-08-14T04:19:58.392Z,0
2016-08-14T04:20:58.122Z,0
2016-08-14T04:21:58.301Z,0
2016-08-14T04:22:58.053Z,0
2016-08-14T04:23:57.993Z,0
2016-08-14T04:24:57.459Z,0
2016-08-14T04:25:57.268Z,0
2016-08-14T04:26:57.862Z,0
2016-08-14T04:27:58.022Z,0
2016-08-14T04:28:57.773Z,0
2016-08-14T04:29:58.774Z,0
2016-08-14T04:30:57.717Z,0
2016-08-14T04:31:57.641Z,0
2016-08-14T04:32:57.650Z,0
2016-08-14T04:33:57.557Z,0
2016-08-14T04:34:57.718Z,0
2016-08-14T04:35:58.143Z,0
2016-08-14T04:36:57.412Z,5
2016-08-14T04:37:57.391Z,5
2016-08-14T04:38:57.525Z,5
2016-08-14T04:39:57.482Z,5
2016-08-14T04:40:57.433Z,5
2016-08-14T04:41:57.197Z,5
2016-08-14T04:42:57.332Z,5
2016-08-14T04:43:56.403Z,5
2016-08-14T04:44:57.024Z,5
2016-08-14T04:45:57.019Z,5
2016-08-14T04:46:56.272Z,5
2016-08-14T04:47:57.306Z,5
2016-08-14T04:48:57.250Z,5
2016-08-14T04:49:56.792Z,5
2016-08-14T04:50:55.563Z,5
2016-08-14T04:51:56.220Z,5
2016-08-14T04:52:56.662Z,5
2016-08-14T04:53:56.651Z,5
2016-08-14T04:54:56.604Z,5
2016-08-14T04:55:57.138Z,5
2016-08-14T04:56:56.504Z,5
2016-08-14T04:57:55.933Z,10
2016-08-14T04:58:57.602Z,10
2016-08-14T04:59:56.343Z,10
2016-08-14T05:00:56.313Z,10
2016-08-14T05:01:57.685Z,10
2016-08-14T05:02:56.441Z,10
2016-08-14T05:03:56.453Z,10
2016-08-14T05:04:56.323Z,10
2016-08-14T05:05:56.093Z,10
2016-08-14T05:06:56.048Z,10
2016-08-14T05:07:56.001Z,10
2016-08-14T05:08:56.353Z,15
2016-08-14T05:09:55.902Z,15
2016-08-14T05:10:56.064Z,15
2016-08-14T05:11:56.044Z,15
2016-08-14T05:12:55.491Z,15
2016-08-14T05:13:55.923Z,15
2016-08-14T05:14:55.893Z,15
2016-08-14T05:15:55.115Z,15
2016-08-14T05:16:55.992Z,15
2016-08-14T05:17:55.922Z,15
2016-08-14T05:18:55.542Z,15
2016-08-14T05:19:55.438Z,20
2016-08-14T05:20:54.711Z,20
2016-08-14T05:21:54.652Z,20
2016-08-14T05:22:55.581Z,20
2016-08-14T05:23:55.276Z,20
2016-08-14T05:24:54.723Z,20
2016-08-14T05:25:54.660Z,20
2016-08-14T05:26:55.131Z,20
2016-08-14T05:27:55.263Z,20
2016-08-14T05:28:55.072Z,20
2016-08-14T05:29:54.993Z,20
2016-08-14T05:30:53.543Z,20
2016-08-14T05:31:54.914Z,20
2016-08-14T05:32:54.884Z,20
2016-08-14T05:33:54.813Z,20
2016-08-14T05:34:54.761Z,20
2016-08-14T05:35:54.906Z,20
2016-08-14T05:36:54.691Z,20
2016-08-14T05:37:54.812Z,20
2016-08-14T05:38:53.863Z,20
2016-08-14T05:39:54.932Z,20
2016-08-14T05:40:54.473Z,20
2016-08-14T05:41:54.437Z,20
2016-08-14T05:42:54.421Z,20
2016-08-14T05:43:54.343Z,20
2016-08-14T05:44:54.902Z,20
2016-08-14T05:45:54.266Z,20
2016-08-14T05:46:54.243Z,25
2016-08-14T05:47:54.179Z,25
2016-08-14T05:48:54.528Z,25
2016-08-14T05:49:52.734Z,25
2016-08-14T05:50:53.332Z,30
2016-08-14T05:51:53.987Z,25
2016-08-14T05:52:54.058Z,30
2016-08-14T05:53:53.892Z,25
2016-08-14T05:54:54.089Z,25
2016-08-14T05:55:53.800Z,30
2016-08-14T05:56:53.664Z,35
2016-08-14T05:57:54.124Z,30
2016-08-14T05:58:53.869Z,35
2016-08-14T05:59:53.624Z,35
2016-08-14T06:00:53.562Z,35
2016-08-14T06:01:52.817Z,35
2016-08-14T06:02:53.500Z,35
2016-08-14T06:03:53.442Z,40
2016-08-14T06:04:53.855Z,40
2016-08-14T06:05:53.556Z,40
2016-08-14T06:06:53.382Z,40
2016-08-14T06:07:52.552Z,40
2016-08-14T06:08:53.229Z,40
2016-08-14T06:09:53.162Z,45
2016-08-14T06:10:52.406Z,45
2016-08-14T06:11:52.416Z,45
2016-08-14T06:12:53.057Z,40
2016-08-14T06:13:50.883Z,35
2016-08-14T06:14:51.612Z,35
2016-08-14T06:15:52.908Z,45
2016-08-14T06:16:52.847Z,50
2016-08-14T06:17:52.288Z,50
2016-08-14T06:18:52.790Z,50
2016-08-14T06:19:52.219Z,50
2016-08-14T06:20:52.030Z,50
2016-08-14T06:21:52.205Z,50
2016-08-14T06:22:52.786Z,50
2016-08-14T06:23:52.572Z,45
2016-08-14T06:24:52.506Z,45
2016-08-14T06:25:51.084Z,45
2016-08-14T06:26:51.730Z,50
2016-08-14T06:27:52.351Z,50
2016-08-14T06:28:52.514Z,50
2016-08-14T06:29:52.304Z,50
2016-08-14T06:30:51.922Z,50
2016-08-14T06:31:51.899Z,45
2016-08-14T06:32:51.637Z,45
2016-08-14T06:33:52.304Z,45
2016-08-14T06:34:52.266Z,45
2016-08-14T06:35:52.022Z,45
2016-08-14T06:36:52.246Z,45
2016-08-14T06:37:51.911Z,50
2016-08-14T06:38:51.452Z,50
2016-08-14T06:39:51.338Z,50
2016-08-14T06:40:51.102Z,55
2016-08-14T06:41:51.029Z,55
2016-08-14T06:42:51.877Z,60
2016-08-14T06:43:51.654Z,50
2016-08-14T06:44:51.214Z,45
2016-08-14T06:45:51.085Z,55
2016-08-14T06:46:50.835Z,65
2016-08-14T06:47:51.692Z,65
2016-08-14T06:48:50.741Z,65
2016-08-14T06:49:50.965Z,70
2016-08-14T06:50:50.668Z,75
2016-08-14T06:51:51.543Z,80
2016-08-14T06:52:50.783Z,80
2016-08-14T06:53:51.192Z,65
2016-08-14T06:54:51.143Z,55
2016-08-14T06:55:51.541Z,50
2016-08-14T06:56:51.092Z,55
2016-08-14T06:57:51.467Z,55
2016-08-14T06:58:49.605Z,60
2016-08-14T06:59:50.653Z,60
2016-08-14T07:00:50.976Z,55
2016-08-14T07:01:50.888Z,50
2016-08-14T07:02:50.111Z,55
2016-08-14T07:03:49.386Z,50
2016-08-14T07:04:50.718Z,55
2016-08-14T07:05:50.193Z,55
2016-08-14T07:06:50.624Z,50
2016-08-14T07:07:50.581Z,55
2016-08-14T07:08:50.563Z,55
2016-08-14T07:09:50.514Z,55
2016-08-14T07:10:49.738Z,55
2016-08-14T07:11:50.394Z,60
2016-08-14T07:12:50.372Z,75
2016-08-14T07:13:50.046Z,90
2016-08-14T07:14:50.272Z,95
2016-08-14T07:15:50.691Z,100
2016-08-14T07:16:50.174Z,110
2016-08-14T07:17:50.358Z,110
2016-08-14T07:18:49.820Z,110
2016-08-14T07:19:50.152Z,90
2016-08-14T07:20:49.411Z,100
2016-08-14T07:21:50.041Z,85
2016-08-14T07:22:50.111Z,90
2016-08-14T07:23:49.176Z,95
2016-08-14T07:24:49.364Z,95
2016-08-14T07:25:49.993Z,70
2016-08-14T07:26:49.058Z,55
2016-08-14T07:27:49.224Z,55
2016-08-14T07:28:47.798Z,55
2016-08-14T07:29:49.911Z,50
2016-08-14T07:30:49.555Z,50
2016-08-14T07:31:48.164Z,45
2016-08-14T07:32:49.481Z,50
2016-08-14T07:33:49.486Z,65
2016-08-14T07:34:49.426Z,65
2016-08-14T07:35:48.895Z,80
2016-08-14T07:36:47.924Z,90
2016-08-14T07:37:48.591Z,85
2016-08-14T07:38:48.538Z,75
2016-08-14T07:39:48.502Z,90
2016-08-14T07:40:49.147Z,90
2016-08-14T07:41:48.448Z,85
2016-08-14T07:42:48.568Z,90
2016-08-14T07:43:46.994Z,80
2016-08-14T07:44:48.962Z,55
2016-08-14T07:45:48.634Z,55
2016-08-14T07:46:48.430Z,50
2016-08-14T07:47:48.398Z,50
2016-08-14T07:48:48.908Z,50
2016-08-14T07:49:48.053Z,50
2016-08-14T07:50:47.296Z,55
2016-08-14T07:51:47.959Z,55
2016-08-14T07:52:47.217Z,55
2016-08-14T07:53:47.188Z,60
2016-08-14T07:54:47.138Z,60
2016-08-14T07:55:47.780Z,65
2016-08-14T07:56:48.462Z,105
2016-08-14T07:57:47.719Z,110
2016-08-14T07:58:48.600Z,115
2016-08-14T07:59:48.332Z,115
2016-08-14T08:00:46.161Z,120
2016-08-14T08:01:47.800Z,135
2016-08-14T08:02:48.168Z,135
2016-08-14T08:03:48.325Z,135
2016-08-14T08:04:48.285Z,95
2016-08-14T08:05:47.549Z,90
2016-08-14T08:06:47.992Z,110
2016-08-14T08:07:48.218Z,90
2016-08-14T08:08:47.970Z,90
2016-08-14T08:09:48.678Z,90
2016-08-14T08:10:47.337Z,90
2016-08-14T08:11:48.224Z,75
2016-08-14T08:12:48.556Z,90
2016-08-14T08:13:47.935Z,100
2016-08-14T08:14:47.640Z,85
2016-08-14T08:15:47.598Z,80
2016-08-14T08:16:47.789Z,70
2016-08-14T08:17:46.121Z,75
2016-08-14T08:18:46.775Z,80
2016-08-14T08:19:46.758Z,65
2016-08-14T08:20:46.717Z,60
2016-08-14T08:21:46.861Z,55
2016-08-14T08:22:47.507Z,55
2016-08-14T08:23:46.087Z,55
2016-08-14T08:24:47.208Z,50
2016-08-14T08:25:47.191Z,50
2016-08-14T08:26:47.155Z,50
2016-08-14T08:27:45.724Z,50
2016-08-14T08:28:47.261Z,50
2016-08-14T08:29:45.641Z,55
2016-08-14T08:30:45.579Z,60
2016-08-14T08:31:46.919Z,65
2016-08-14T08:32:45.698Z,110
2016-08-14T08:33:46.834Z,105
2016-08-14T08:34:46.288Z,115
2016-08-14T08:35:46.240Z,125
2016-08-14T08:36:46.919Z,125
2016-08-14T08:37:46.682Z,125
2016-08-14T08:38:46.645Z,125
2016-08-14T08:39:46.590Z,125
2016-08-14T08:40:46.547Z,125
2016-08-14T08:41:45.886Z,120
2016-08-14T08:42:44.549Z,120
2016-08-14T08:43:45.200Z,120
2016-08-14T08:44:46.780Z,115
2016-08-14T08:45:46.892Z,115
2016-08-14T08:46:45.796Z,120
2016-08-14T08:47:45.502Z,130
2016-08-14T08:48:45.719Z,140
2016-08-14T08:49:46.151Z,120
2016-08-14T08:50:46.103Z,145
2016-08-14T08:51:46.049Z,145
2016-08-14T08:52:46.001Z,120
2016-08-14T08:53:45.961Z,125
2016-08-14T08:54:45.910Z,115
2016-08-14T08:55:46.283Z,165
2016-08-14T08:56:45.131Z,165
2016-08-14T08:57:45.803Z,170
2016-08-14T08:58:45.769Z,155
2016-08-14T08:59:46.111Z,165
2016-08-14T09:00:45.866Z,165
2016-08-14T09:01:45.635Z,130
2016-08-14T09:02:45.811Z,110
2016-08-14T09:03:44.919Z,115
2016-08-14T09:04:44.879Z,130
2016-08-14T09:05:45.661Z,105
2016-08-14T09:06:45.612Z,100
2016-08-14T09:07:45.360Z,95
2016-08-14T09:08:45.553Z,115
2016-08-14T09:09:45.269Z,110
2016-08-14T09:10:43.824Z,130
2016-08-14T09:11:45.404Z,95
2016-08-14T09:12:45.343Z,100
2016-08-14T09:13:45.085Z,115
2016-08-14T09:14:44.380Z,120
2016-08-14T09:15:45.008Z,75
2016-08-14T09:16:44.990Z,70
2016-08-14T09:17:44.229Z,70
2016-08-14T09:18:45.082Z,60
2016-08-14T09:19:44.127Z,55
2016-08-14T09:20:43.699Z,55
2016-08-14T09:21:44.298Z,55
2016-08-14T09:22:44.049Z,60
2016-08-14T09:23:44.232Z,55
2016-08-14T09:24:44.654Z,60
2016-08-14T09:25:44.624Z,65
2016-08-14T09:26:44.542Z,65
2016-08-14T09:27:44.882Z,70
2016-08-14T09:28:44.466Z,80
2016-08-14T09:29:44.427Z,95
2016-08-14T09:30:43.739Z,105
2016-08-14T09:31:43.640Z,90
2016-08-14T09:32:43.626Z,100
2016-08-14T09:33:44.899Z,100
2016-08-14T09:34:42.822Z,115
2016-08-14T09:35:43.484Z,95
2016-08-14T09:36:44.089Z,90
2016-08-14T09:37:44.094Z,105
2016-08-14T09:38:44.251Z,115
2016-08-14T09:39:44.046Z,165
2016-08-14T09:40:43.958Z,125
2016-08-14T09:41:43.923Z,125
2016-08-14T09:42:43.151Z,130
2016-08-14T09:43:43.799Z,145
2016-08-14T09:44:43.780Z,120
2016-08-14T09:45:42.761Z,105
2016-08-14T09:46:43.681Z,95
2016-08-14T09:47:43.680Z,105
2016-08-14T09:48:42.921Z,105
2016-08-14T09:49:43.581Z,105
2016-08-14T09:50:42.810Z,110
2016-08-14T09:51:42.784Z,105
2016-08-14T09:52:42.463Z,105
2016-08-14T09:53:42.714Z,105
2016-08-14T09:54:43.060Z,100
2016-08-14T09:55:43.327Z,90
2016-08-14T09:56:43.471Z,90
2016-08-14T09:57:42.528Z,90
2016-08-14T09:58:43.304Z,90
2016-08-14T09:59:43.342Z,90
2016-08-14T10:00:43.336Z,90
2016-08-14T10:01:43.470Z,90
2016-08-14T10:02:42.557Z,85
2016-08-14T10:03:42.278Z,85
2016-08-14T10:04:41.578Z,85
2016-08-14T10:05:42.893Z,85
2016-08-14T10:06:42.356Z,85
2016-08-14T10:07:42.099Z,85
2016-08-14T10:08:42.054Z,85
2016-08-14T10:09:42.903Z,120
2016-08-14T10:10:42.724Z,90
